OCN9MU LGMK-EDDF
Flight info
| Callsign | OCN9MU |
|---|---|
| Flight time | N/A |
| Altitude | 36000 |
| Route | VARIX L995 KEA UN132 ROPOX UM749 SKP UL617 MAKED DCT LONTA UL608 DOLEV DCT LURID DCT BEDOX DCT SIMBA DCT AKINI T161 DEBHI SPESA5C |
| Aircraft | A320/M-SDE3FGHIRWY/LB1 |
Departure
| Time | 2026-05-07 20:18 |
|---|---|
| Airport | Mykonos Island National Airport (LGMK) |
Arrival
| Time | N/A |
|---|---|
| Airport | Frankfurt Main Airport (EDDF) |
| Time | Latitude | Longitude | Altitude | Speed | Heading |
|---|---|---|---|---|---|
| 2026-05-07 20:03 | 37.43561 | 25.34637 | 408 ft | 0 kts | 249° |
| 2026-05-07 20:09 | 37.43565 | 25.34652 | 408 ft | 3 kts | 259° |
| 2026-05-07 20:09 | 37.43566 | 25.34675 | 408 ft | 3 kts | 294° |
| 2026-05-07 20:10 | 37.43549 | 25.34697 | 405 ft | 0 kts | 340° |
| 2026-05-07 20:12 | 37.43569 | 25.34688 | 403 ft | 4 kts | 341° |
| 2026-05-07 20:13 | 37.43591 | 25.34679 | 407 ft | 3 kts | 343° |
| 2026-05-07 20:13 | 37.43609 | 25.34673 | 407 ft | 3 kts | 347° |
| 2026-05-07 20:13 | 37.43621 | 25.34673 | 406 ft | 0 kts | 8° |
| 2026-05-07 20:13 | 37.43643 | 25.34686 | 406 ft | 6 kts | 30° |
| 2026-05-07 20:14 | 37.43677 | 25.34710 | 402 ft | 5 kts | 28° |
| 2026-05-07 20:14 | 37.43705 | 25.34727 | 406 ft | 3 kts | 20° |
| 2026-05-07 20:14 | 37.43728 | 25.34728 | 406 ft | 8 kts | 350° |
| 2026-05-07 20:14 | 37.43821 | 25.34689 | 406 ft | 17 kts | 340° |
| 2026-05-07 20:15 | 37.43926 | 25.34642 | 409 ft | 15 kts | 340° |
| 2026-05-07 20:15 | 37.44028 | 25.34597 | 407 ft | 16 kts | 340° |
| 2026-05-07 20:15 | 37.44150 | 25.34543 | 406 ft | 19 kts | 340° |
| 2026-05-07 20:15 | 37.44244 | 25.34488 | 406 ft | 0 kts | 314° |
| 2026-05-07 20:16 | 37.44254 | 25.34472 | 405 ft | 4 kts | 301° |
| 2026-05-07 20:16 | 37.44274 | 25.34446 | 401 ft | 3 kts | 353° |
| 2026-05-07 20:16 | 37.44286 | 25.34459 | 404 ft | 2 kts | 54° |
| 2026-05-07 20:16 | 37.44285 | 25.34481 | 406 ft | 1 kts | 114° |
| 2026-05-07 20:17 | 37.44272 | 25.34490 | 405 ft | 2 kts | 159° |
| 2026-05-07 20:17 | 37.44263 | 25.34494 | 406 ft | 0 kts | 161° |
| 2026-05-07 20:17 | 37.44178 | 25.34531 | 406 ft | 43 kts | 161° |
| 2026-05-07 20:17 | 37.43643 | 25.34766 | 406 ft | 115 kts | 161° |
| 2026-05-07 20:18 | 37.42716 | 25.35149 | 577 ft | 151 kts | 159° |
| 2026-05-07 20:18 | 37.41733 | 25.35496 | 1347 ft | 146 kts | 163° |
| 2026-05-07 20:18 | 37.40757 | 25.35933 | 1881 ft | 157 kts | 161° |
| 2026-05-07 20:18 | 37.39684 | 25.36430 | 2172 ft | 176 kts | 162° |
| 2026-05-07 20:19 | 37.38471 | 25.36981 | 2465 ft | 193 kts | 161° |
| 2026-05-07 20:19 | 37.37177 | 25.37585 | 2885 ft | 201 kts | 161° |
| 2026-05-07 20:19 | 37.35824 | 25.38199 | 3339 ft | 209 kts | 164° |
| 2026-05-07 20:19 | 37.34400 | 25.38275 | 3853 ft | 212 kts | 201° |
| 2026-05-07 20:20 | 37.33224 | 25.37159 | 4291 ft | 224 kts | 233° |
| 2026-05-07 20:20 | 37.32467 | 25.35366 | 4835 ft | 235 kts | 243° |
| 2026-05-07 20:20 | 37.31744 | 25.33524 | 5602 ft | 236 kts | 243° |
| 2026-05-07 20:20 | 37.30992 | 25.31678 | 6397 ft | 237 kts | 243° |
| 2026-05-07 20:21 | 37.30236 | 25.29862 | 7159 ft | 238 kts | 243° |
| 2026-05-07 20:21 | 37.29456 | 25.28010 | 7892 ft | 240 kts | 243° |
| 2026-05-07 20:21 | 37.28677 | 25.26167 | 8627 ft | 242 kts | 243° |
| 2026-05-07 20:21 | 37.27886 | 25.24292 | 9381 ft | 244 kts | 245° |
| 2026-05-07 20:22 | 37.27411 | 25.22248 | 10110 ft | 245 kts | 266° |
| 2026-05-07 20:22 | 37.27561 | 25.20088 | 10642 ft | 256 kts | 286° |
| 2026-05-07 20:22 | 37.28382 | 25.18046 | 10898 ft | 277 kts | 304° |
| 2026-05-07 20:22 | 37.29507 | 25.16033 | 11443 ft | 285 kts | 303° |
| 2026-05-07 20:23 | 37.30647 | 25.13968 | 12128 ft | 288 kts | 303° |
| 2026-05-07 20:23 | 37.31789 | 25.11884 | 12822 ft | 291 kts | 303° |
| 2026-05-07 20:23 | 37.32941 | 25.09767 | 13513 ft | 295 kts | 303° |
| 2026-05-07 20:23 | 37.34102 | 25.07633 | 14172 ft | 298 kts | 303° |
| 2026-05-07 20:24 | 37.35280 | 25.05465 | 14787 ft | 300 kts | 303° |
| 2026-05-07 20:24 | 37.36366 | 25.03253 | 15396 ft | 301 kts | 294° |
| 2026-05-07 20:24 | 37.37136 | 25.00743 | 15646 ft | 317 kts | 288° |
| 2026-05-07 20:24 | 37.37859 | 24.98030 | 15764 ft | 336 kts | 288° |
| 2026-05-07 20:25 | 37.38610 | 24.95166 | 15895 ft | 353 kts | 287° |
| 2026-05-07 20:25 | 37.39395 | 24.92155 | 16067 ft | 367 kts | 287° |
| 2026-05-07 20:25 | 37.40191 | 24.89111 | 16496 ft | 373 kts | 288° |
| 2026-05-07 20:25 | 37.41014 | 24.85988 | 16997 ft | 377 kts | 288° |
| 2026-05-07 20:26 | 37.41847 | 24.82845 | 17536 ft | 379 kts | 288° |
| 2026-05-07 20:26 | 37.42686 | 24.79681 | 18056 ft | 382 kts | 288° |
| 2026-05-07 20:26 | 37.43521 | 24.76526 | 18536 ft | 385 kts | 288° |
| 2026-05-07 20:26 | 37.44368 | 24.73316 | 18980 ft | 387 kts | 288° |
| 2026-05-07 20:27 | 37.45225 | 24.70068 | 19410 ft | 390 kts | 288° |
| 2026-05-07 20:27 | 37.46081 | 24.66818 | 19837 ft | 392 kts | 288° |
| 2026-05-07 20:27 | 37.46932 | 24.63574 | 20261 ft | 395 kts | 288° |
| 2026-05-07 20:27 | 37.47795 | 24.60271 | 20681 ft | 397 kts | 288° |
| 2026-05-07 20:28 | 37.48662 | 24.56950 | 21094 ft | 400 kts | 288° |
| 2026-05-07 20:28 | 37.49536 | 24.53607 | 21501 ft | 403 kts | 288° |
| 2026-05-07 20:28 | 37.50415 | 24.50246 | 21900 ft | 405 kts | 288° |
| 2026-05-07 20:28 | 37.51299 | 24.46863 | 22307 ft | 407 kts | 288° |
| 2026-05-07 20:29 | 37.52180 | 24.43493 | 22695 ft | 410 kts | 288° |
| 2026-05-07 20:29 | 37.53071 | 24.40076 | 23077 ft | 412 kts | 288° |
| 2026-05-07 20:29 | 37.53973 | 24.36613 | 23471 ft | 414 kts | 289° |
| 2026-05-07 20:29 | 37.55061 | 24.33259 | 23845 ft | 415 kts | 298° |
| 2026-05-07 20:30 | 37.56618 | 24.30199 | 24183 ft | 416 kts | 308° |
| 2026-05-07 20:30 | 37.58589 | 24.27564 | 24544 ft | 417 kts | 317° |
| 2026-05-07 20:30 | 37.60928 | 24.25374 | 24911 ft | 419 kts | 324° |
| 2026-05-07 20:30 | 37.63341 | 24.23305 | 25271 ft | 419 kts | 323° |
| 2026-05-07 20:31 | 37.65756 | 24.21222 | 25632 ft | 419 kts | 323° |
| 2026-05-07 20:31 | 37.68146 | 24.19152 | 25984 ft | 420 kts | 323° |
| 2026-05-07 20:31 | 37.70555 | 24.17055 | 26290 ft | 421 kts | 323° |
| 2026-05-07 20:31 | 37.72960 | 24.14958 | 26606 ft | 421 kts | 322° |
| 2026-05-07 20:32 | 37.75376 | 24.12849 | 26905 ft | 422 kts | 322° |
| 2026-05-07 20:32 | 37.77792 | 24.10738 | 27216 ft | 423 kts | 322° |
| 2026-05-07 20:32 | 37.80215 | 24.08622 | 27522 ft | 423 kts | 322° |
| 2026-05-07 20:32 | 37.82666 | 24.06486 | 27815 ft | 424 kts | 322° |
| 2026-05-07 20:33 | 37.85070 | 24.04397 | 28082 ft | 425 kts | 322° |
| 2026-05-07 20:33 | 37.87513 | 24.02271 | 28405 ft | 424 kts | 322° |
| 2026-05-07 20:33 | 37.89939 | 24.00157 | 28832 ft | 422 kts | 322° |
| 2026-05-07 20:33 | 37.92345 | 23.98057 | 29262 ft | 419 kts | 321° |
| 2026-05-07 20:34 | 37.94736 | 23.95963 | 29712 ft | 416 kts | 321° |
| 2026-05-07 20:34 | 37.97121 | 23.93871 | 30146 ft | 414 kts | 321° |
| 2026-05-07 20:34 | 37.99480 | 23.91800 | 30517 ft | 411 kts | 321° |
| 2026-05-07 20:34 | 38.01839 | 23.89727 | 30883 ft | 409 kts | 321° |
| 2026-05-07 20:35 | 38.04139 | 23.87706 | 31242 ft | 406 kts | 321° |
| 2026-05-07 20:35 | 38.06465 | 23.85663 | 31621 ft | 403 kts | 321° |
| 2026-05-07 20:35 | 38.08761 | 23.83651 | 32007 ft | 400 kts | 321° |
| 2026-05-07 20:35 | 38.11057 | 23.81639 | 32405 ft | 397 kts | 321° |
| 2026-05-07 20:36 | 38.13296 | 23.79673 | 32788 ft | 394 kts | 320° |
| 2026-05-07 20:36 | 38.15638 | 23.77813 | 33138 ft | 396 kts | 327° |
| 2026-05-07 20:36 | 38.18188 | 23.76506 | 33491 ft | 402 kts | 336° |
| 2026-05-07 20:36 | 38.20965 | 23.75800 | 33840 ft | 410 kts | 345° |
| 2026-05-07 20:37 | 38.23802 | 23.75392 | 34159 ft | 409 kts | 345° |
| 2026-05-07 20:37 | 38.26639 | 23.74986 | 34455 ft | 407 kts | 345° |
| 2026-05-07 20:37 | 38.29411 | 23.74589 | 34719 ft | 407 kts | 345° |
| 2026-05-07 20:37 | 38.32241 | 23.74183 | 34945 ft | 406 kts | 345° |
| 2026-05-07 20:38 | 38.35041 | 23.73780 | 35194 ft | 405 kts | 345° |
| 2026-05-07 20:38 | 38.37841 | 23.73376 | 35451 ft | 404 kts | 345° |
| 2026-05-07 20:38 | 38.40634 | 23.72973 | 35706 ft | 402 kts | 345° |
| 2026-05-07 20:38 | 38.43383 | 23.72575 | 35966 ft | 401 kts | 345° |
| 2026-05-07 20:39 | 38.46163 | 23.72170 | 36112 ft | 400 kts | 345° |
| 2026-05-07 20:39 | 38.51712 | 23.71353 | 36149 ft | 401 kts | 345° |
| 2026-05-07 20:40 | 38.57274 | 23.70547 | 36142 ft | 401 kts | 345° |
| 2026-05-07 20:40 | 38.62799 | 23.69746 | 36138 ft | 401 kts | 345° |
| 2026-05-07 20:41 | 38.68350 | 23.68934 | 36139 ft | 401 kts | 344° |
| 2026-05-07 20:41 | 38.73908 | 23.68113 | 36137 ft | 401 kts | 344° |
| 2026-05-07 20:42 | 38.79414 | 23.67305 | 36135 ft | 401 kts | 344° |
| 2026-05-07 20:42 | 38.84971 | 23.66485 | 36134 ft | 401 kts | 344° |
| 2026-05-07 20:43 | 38.90503 | 23.65666 | 36132 ft | 402 kts | 344° |
| 2026-05-07 20:43 | 38.96066 | 23.64846 | 36118 ft | 402 kts | 344° |
| 2026-05-07 20:44 | 39.01648 | 23.64022 | 36107 ft | 402 kts | 344° |
| 2026-05-07 20:44 | 39.06286 | 23.63338 | 36101 ft | 403 kts | 344° |
| 2026-05-07 20:45 | 39.11829 | 23.62514 | 36106 ft | 403 kts | 343° |
| 2026-05-07 20:45 | 39.17401 | 23.61620 | 36099 ft | 398 kts | 339° |
| 2026-05-07 20:46 | 39.22558 | 23.59445 | 36091 ft | 388 kts | 331° |
| 2026-05-07 20:46 | 39.27603 | 23.57010 | 36093 ft | 388 kts | 331° |
| 2026-05-07 20:47 | 39.32669 | 23.54571 | 36109 ft | 388 kts | 331° |
| 2026-05-07 20:47 | 39.37743 | 23.52122 | 36136 ft | 389 kts | 331° |
| 2026-05-07 20:48 | 39.42775 | 23.49679 | 36134 ft | 389 kts | 331° |
| 2026-05-07 20:48 | 39.47860 | 23.47215 | 36128 ft | 389 kts | 331° |
| 2026-05-07 20:49 | 39.52924 | 23.44758 | 36136 ft | 389 kts | 331° |
| 2026-05-07 20:49 | 39.57969 | 23.42314 | 36157 ft | 388 kts | 331° |
| 2026-05-07 20:50 | 39.63038 | 23.39856 | 36146 ft | 388 kts | 331° |
| 2026-05-07 20:50 | 39.68096 | 23.37396 | 36143 ft | 388 kts | 330° |
| 2026-05-07 20:51 | 39.73123 | 23.34943 | 36129 ft | 388 kts | 330° |
| 2026-05-07 20:51 | 39.78167 | 23.32477 | 36146 ft | 388 kts | 330° |
| 2026-05-07 20:52 | 39.83231 | 23.29996 | 36148 ft | 387 kts | 330° |
| 2026-05-07 20:52 | 39.88266 | 23.27528 | 36147 ft | 386 kts | 330° |
| 2026-05-07 20:53 | 39.93269 | 23.25074 | 36142 ft | 386 kts | 330° |
| 2026-05-07 20:53 | 39.98316 | 23.22590 | 36135 ft | 386 kts | 330° |
| 2026-05-07 20:54 | 40.03322 | 23.20125 | 36147 ft | 386 kts | 330° |
| 2026-05-07 20:54 | 40.08357 | 23.17647 | 36139 ft | 385 kts | 330° |
| 2026-05-07 20:55 | 40.13393 | 23.15155 | 36134 ft | 385 kts | 330° |
| 2026-05-07 20:55 | 40.18405 | 23.12672 | 36132 ft | 385 kts | 330° |
| 2026-05-07 20:56 | 40.23391 | 23.10200 | 36125 ft | 385 kts | 329° |
| 2026-05-07 20:56 | 40.28416 | 23.07705 | 36123 ft | 387 kts | 329° |
| 2026-05-07 20:57 | 40.33461 | 23.05200 | 36114 ft | 388 kts | 329° |
| 2026-05-07 20:57 | 40.38511 | 23.02685 | 36110 ft | 388 kts | 329° |
| 2026-05-07 20:58 | 40.43581 | 23.00148 | 36112 ft | 389 kts | 329° |
| 2026-05-07 20:58 | 40.48402 | 22.97217 | 36112 ft | 381 kts | 323° |
| 2026-05-07 20:59 | 40.53092 | 22.93937 | 36109 ft | 381 kts | 323° |
| 2026-05-07 20:59 | 40.57752 | 22.90670 | 36108 ft | 381 kts | 323° |
| 2026-05-07 21:00 | 40.62436 | 22.87389 | 36106 ft | 381 kts | 323° |
| 2026-05-07 21:00 | 40.67118 | 22.84109 | 36107 ft | 381 kts | 323° |
| 2026-05-07 21:01 | 40.71808 | 22.80822 | 36135 ft | 381 kts | 323° |
| 2026-05-07 21:01 | 40.76466 | 22.77536 | 36123 ft | 382 kts | 323° |
| 2026-05-07 21:02 | 40.81165 | 22.74204 | 36109 ft | 384 kts | 323° |
| 2026-05-07 21:02 | 40.85890 | 22.70867 | 36104 ft | 385 kts | 323° |
| 2026-05-07 21:03 | 40.90604 | 22.67547 | 36107 ft | 385 kts | 323° |
| 2026-05-07 21:03 | 40.95336 | 22.64199 | 36130 ft | 385 kts | 323° |
| 2026-05-07 21:04 | 41.00042 | 22.60856 | 36130 ft | 385 kts | 323° |
| 2026-05-07 21:04 | 41.04765 | 22.57491 | 36129 ft | 385 kts | 322° |
| 2026-05-07 21:05 | 41.09465 | 22.54141 | 36132 ft | 385 kts | 323° |
| 2026-05-07 21:05 | 41.14030 | 22.50514 | 36129 ft | 375 kts | 314° |
| 2026-05-07 21:06 | 41.18083 | 22.46173 | 36130 ft | 374 kts | 314° |
| 2026-05-07 21:06 | 41.22115 | 22.41860 | 36136 ft | 375 kts | 313° |
| 2026-05-07 21:07 | 41.26195 | 22.37506 | 36126 ft | 375 kts | 313° |
| 2026-05-07 21:07 | 41.30273 | 22.33151 | 36124 ft | 375 kts | 313° |
| 2026-05-07 21:08 | 41.34322 | 22.28813 | 36123 ft | 375 kts | 313° |
| 2026-05-07 21:08 | 41.38398 | 22.24436 | 36121 ft | 376 kts | 313° |
| 2026-05-07 21:09 | 41.42469 | 22.20062 | 36110 ft | 376 kts | 313° |
| 2026-05-07 21:09 | 41.46525 | 22.15688 | 36119 ft | 377 kts | 313° |
| 2026-05-07 21:10 | 41.50612 | 22.11268 | 36118 ft | 378 kts | 313° |
| 2026-05-07 21:10 | 41.54714 | 22.06839 | 36101 ft | 379 kts | 313° |
| 2026-05-07 21:11 | 41.58826 | 22.02385 | 36098 ft | 381 kts | 313° |
| 2026-05-07 21:11 | 41.64987 | 21.95690 | 36098 ft | 381 kts | 313° |
| 2026-05-07 21:12 | 41.69090 | 21.91234 | 36123 ft | 382 kts | 313° |
| 2026-05-07 21:12 | 41.73223 | 21.86735 | 36114 ft | 383 kts | 313° |
| 2026-05-07 21:13 | 41.77362 | 21.82211 | 36124 ft | 383 kts | 313° |
| 2026-05-07 21:13 | 41.81470 | 21.77716 | 36131 ft | 384 kts | 312° |
| 2026-05-07 21:14 | 41.85635 | 21.73161 | 36131 ft | 385 kts | 312° |
| 2026-05-07 21:14 | 41.89767 | 21.68632 | 36131 ft | 386 kts | 312° |
| 2026-05-07 21:15 | 41.93931 | 21.64063 | 36131 ft | 386 kts | 312° |
| 2026-05-07 21:15 | 41.98103 | 21.59467 | 36132 ft | 388 kts | 313° |
| 2026-05-07 21:16 | 42.02284 | 21.54850 | 36104 ft | 389 kts | 313° |
| 2026-05-07 21:16 | 42.06457 | 21.50239 | 36108 ft | 390 kts | 313° |
| 2026-05-07 21:17 | 42.10648 | 21.45601 | 36110 ft | 390 kts | 313° |
| 2026-05-07 21:17 | 42.14844 | 21.40940 | 36108 ft | 390 kts | 312° |
| 2026-05-07 21:18 | 42.18506 | 21.35703 | 36111 ft | 382 kts | 304° |
| 2026-05-07 21:18 | 42.21950 | 21.30245 | 36110 ft | 384 kts | 305° |
| 2026-05-07 21:19 | 42.25423 | 21.24727 | 36106 ft | 386 kts | 305° |
| 2026-05-07 21:19 | 42.28887 | 21.19216 | 36105 ft | 387 kts | 305° |
| 2026-05-07 21:20 | 42.32374 | 21.13653 | 36122 ft | 388 kts | 305° |
| 2026-05-07 21:20 | 42.35866 | 21.08068 | 36103 ft | 390 kts | 305° |
| 2026-05-07 21:21 | 42.39392 | 21.02428 | 36109 ft | 392 kts | 305° |
| 2026-05-07 21:21 | 42.42901 | 20.96819 | 36110 ft | 393 kts | 305° |
| 2026-05-07 21:22 | 42.46433 | 20.91153 | 36113 ft | 393 kts | 304° |
| 2026-05-07 21:22 | 42.49964 | 20.85469 | 36117 ft | 395 kts | 305° |
| 2026-05-07 21:23 | 42.53496 | 20.79778 | 36123 ft | 396 kts | 305° |
| 2026-05-07 21:23 | 42.57056 | 20.74026 | 36105 ft | 399 kts | 305° |
| 2026-05-07 21:24 | 42.60640 | 20.68228 | 36102 ft | 400 kts | 305° |
| 2026-05-07 21:24 | 42.64211 | 20.62439 | 36092 ft | 401 kts | 305° |
| 2026-05-07 21:25 | 42.67803 | 20.56606 | 36097 ft | 402 kts | 305° |
| 2026-05-07 21:25 | 42.71391 | 20.50762 | 36098 ft | 402 kts | 305° |
| 2026-05-07 21:26 | 42.74963 | 20.44949 | 36117 ft | 403 kts | 305° |
| 2026-05-07 21:26 | 42.78554 | 20.39076 | 36121 ft | 404 kts | 305° |
| 2026-05-07 21:27 | 42.81549 | 20.34159 | 36111 ft | 405 kts | 305° |
| 2026-05-07 21:27 | 42.85497 | 20.28601 | 36112 ft | 411 kts | 313° |
| 2026-05-07 21:28 | 42.89777 | 20.23474 | 36112 ft | 411 kts | 313° |
| 2026-05-07 21:28 | 42.94080 | 20.18313 | 36115 ft | 411 kts | 313° |
| 2026-05-07 21:29 | 42.98367 | 20.13145 | 36127 ft | 411 kts | 313° |
| 2026-05-07 21:29 | 43.02664 | 20.07951 | 36120 ft | 412 kts | 313° |
| 2026-05-07 21:30 | 43.06965 | 20.02743 | 36121 ft | 412 kts | 313° |
| 2026-05-07 21:30 | 43.11271 | 19.97523 | 36121 ft | 413 kts | 313° |
| 2026-05-07 21:31 | 43.15563 | 19.92306 | 36120 ft | 413 kts | 313° |
| 2026-05-07 21:31 | 43.19831 | 19.87105 | 36122 ft | 413 kts | 313° |
| 2026-05-07 21:32 | 43.24138 | 19.81851 | 36120 ft | 413 kts | 313° |
| 2026-05-07 21:32 | 43.28408 | 19.76636 | 36141 ft | 413 kts | 313° |
| 2026-05-07 21:33 | 43.32700 | 19.71374 | 36132 ft | 413 kts | 312° |
| 2026-05-07 21:33 | 43.36993 | 19.66102 | 36123 ft | 413 kts | 312° |
| 2026-05-07 21:34 | 43.41287 | 19.60829 | 36117 ft | 413 kts | 313° |
| 2026-05-07 21:34 | 43.45547 | 19.55582 | 36133 ft | 413 kts | 312° |
| 2026-05-07 21:35 | 43.49837 | 19.50291 | 36123 ft | 413 kts | 312° |
| 2026-05-07 21:35 | 43.54113 | 19.44991 | 36123 ft | 413 kts | 312° |
| 2026-05-07 21:36 | 43.58388 | 19.39699 | 36112 ft | 413 kts | 311° |
| 2026-05-07 21:36 | 43.62642 | 19.34429 | 36110 ft | 413 kts | 312° |
| 2026-05-07 21:37 | 43.66926 | 19.29102 | 36111 ft | 413 kts | 311° |
| 2026-05-07 21:37 | 43.71169 | 19.23802 | 36102 ft | 413 kts | 311° |
| 2026-05-07 21:38 | 43.75437 | 19.18463 | 36110 ft | 414 kts | 311° |
| 2026-05-07 21:38 | 43.79716 | 19.13118 | 36104 ft | 414 kts | 311° |
| 2026-05-07 21:39 | 43.83990 | 19.07766 | 36103 ft | 414 kts | 311° |
| 2026-05-07 21:39 | 43.88244 | 19.02418 | 36092 ft | 414 kts | 311° |
| 2026-05-07 21:40 | 43.92520 | 18.97024 | 36095 ft | 415 kts | 311° |
| 2026-05-07 21:40 | 43.96775 | 18.91660 | 36094 ft | 415 kts | 311° |
| 2026-05-07 21:41 | 44.01049 | 18.86249 | 36125 ft | 415 kts | 311° |
| 2026-05-07 21:41 | 44.05323 | 18.80839 | 36125 ft | 415 kts | 311° |
| 2026-05-07 21:42 | 44.09593 | 18.75431 | 36121 ft | 415 kts | 311° |
| 2026-05-07 21:42 | 44.13841 | 18.70021 | 36119 ft | 415 kts | 310° |
| 2026-05-07 21:43 | 44.18109 | 18.64580 | 36111 ft | 415 kts | 310° |
| 2026-05-07 21:43 | 44.22378 | 18.59122 | 36104 ft | 415 kts | 310° |
| 2026-05-07 21:44 | 44.26636 | 18.53662 | 36102 ft | 415 kts | 310° |
| 2026-05-07 21:44 | 44.30873 | 18.48229 | 36091 ft | 416 kts | 310° |
| 2026-05-07 21:45 | 44.35159 | 18.42732 | 36088 ft | 416 kts | 310° |
| 2026-05-07 21:45 | 44.39397 | 18.37272 | 36084 ft | 417 kts | 310° |
| 2026-05-07 21:46 | 44.43666 | 18.31764 | 36084 ft | 416 kts | 310° |
| 2026-05-07 21:46 | 44.47922 | 18.26257 | 36091 ft | 417 kts | 310° |
| 2026-05-07 21:47 | 44.52193 | 18.20719 | 36092 ft | 418 kts | 311° |
| 2026-05-07 21:47 | 44.56444 | 18.15193 | 36066 ft | 419 kts | 311° |
| 2026-05-07 21:48 | 44.60729 | 18.09626 | 36066 ft | 420 kts | 311° |
| 2026-05-07 21:48 | 44.65023 | 18.04038 | 36065 ft | 420 kts | 310° |
| 2026-05-07 21:49 | 44.69316 | 17.98425 | 36083 ft | 421 kts | 311° |
| 2026-05-07 21:49 | 44.73565 | 17.92843 | 36082 ft | 420 kts | 310° |
| 2026-05-07 21:50 | 44.77850 | 17.87211 | 36087 ft | 421 kts | 311° |
| 2026-05-07 21:50 | 44.82124 | 17.81598 | 36075 ft | 422 kts | 311° |
| 2026-05-07 21:51 | 44.86428 | 17.75935 | 36081 ft | 423 kts | 311° |
| 2026-05-07 21:51 | 44.90715 | 17.70270 | 36077 ft | 423 kts | 311° |
| 2026-05-07 21:52 | 44.95014 | 17.64573 | 36072 ft | 423 kts | 311° |
| 2026-05-07 21:52 | 44.99315 | 17.58852 | 36068 ft | 423 kts | 311° |
| 2026-05-07 21:53 | 45.03614 | 17.53146 | 36074 ft | 423 kts | 311° |
| 2026-05-07 21:53 | 45.07897 | 17.47451 | 36094 ft | 424 kts | 311° |
| 2026-05-07 21:54 | 45.12184 | 17.41720 | 36078 ft | 424 kts | 311° |
| 2026-05-07 21:54 | 45.16467 | 17.35973 | 36072 ft | 424 kts | 310° |
| 2026-05-07 21:55 | 45.20742 | 17.30185 | 36069 ft | 424 kts | 310° |
| 2026-05-07 21:55 | 45.25009 | 17.24376 | 36069 ft | 425 kts | 310° |
| 2026-05-07 21:56 | 45.29248 | 17.18607 | 36098 ft | 425 kts | 310° |
| 2026-05-07 21:56 | 45.33528 | 17.12773 | 36093 ft | 424 kts | 310° |
| 2026-05-07 21:57 | 45.37788 | 17.06945 | 36085 ft | 424 kts | 310° |
| 2026-05-07 21:57 | 45.42050 | 17.01122 | 36082 ft | 424 kts | 310° |
| 2026-05-07 21:58 | 45.46279 | 16.95325 | 36081 ft | 424 kts | 310° |
| 2026-05-07 21:58 | 45.50533 | 16.89475 | 36095 ft | 424 kts | 310° |
| 2026-05-07 21:59 | 45.54784 | 16.83619 | 36087 ft | 424 kts | 310° |
| 2026-05-07 21:59 | 45.59024 | 16.77763 | 36081 ft | 424 kts | 310° |
| 2026-05-07 22:00 | 45.63237 | 16.71933 | 36083 ft | 424 kts | 310° |
| 2026-05-07 22:00 | 45.67484 | 16.66038 | 36084 ft | 424 kts | 310° |
| 2026-05-07 22:01 | 45.71696 | 16.60169 | 36091 ft | 423 kts | 310° |
| 2026-05-07 22:01 | 45.75924 | 16.54278 | 36093 ft | 423 kts | 310° |
| 2026-05-07 22:02 | 45.80132 | 16.48418 | 36082 ft | 424 kts | 310° |
| 2026-05-07 22:02 | 45.84372 | 16.42507 | 36075 ft | 425 kts | 310° |
| 2026-05-07 22:03 | 45.88607 | 16.36557 | 36089 ft | 426 kts | 310° |
| 2026-05-07 22:03 | 45.92851 | 16.30582 | 36092 ft | 426 kts | 310° |
| 2026-05-07 22:04 | 45.97057 | 16.24659 | 36091 ft | 426 kts | 310° |
| 2026-05-07 22:04 | 46.01295 | 16.18675 | 36093 ft | 425 kts | 310° |
| 2026-05-07 22:05 | 46.05516 | 16.12692 | 36099 ft | 426 kts | 310° |
| 2026-05-07 22:05 | 46.09727 | 16.06716 | 36116 ft | 426 kts | 310° |
| 2026-05-07 22:06 | 46.13923 | 16.00750 | 36097 ft | 426 kts | 310° |